Time;durP1;ratioP1;P1;durP2;ratioP2;P2;SDS_P1;SDS_P2;PMS_P1;PMS_P2;Temp;Humidity;BMP_temperature;BMP_pressure;BME280_temperature;BME280_humidity;BME280_pressure;Samples;Min_cycle;Max_cycle;Signal;HPM_P1;HPM_P2
2021/11/04 00:04:32;;;;;;;;;;;6.60;99.90;;;5.54;100.00;94048.69;10538116;28;1970;-74
2021/11/04 00:09:35;;;;;;;;;;;6.70;99.90;;;5.55;100.00;94055.59;10538803;28;1828;-74
2021/11/04 00:14:38;;;;;;;;;;;6.60;99.90;;;5.61;100.00;94043.81;10530867;28;1939;-75
2021/11/04 00:19:41;;;;;;;;;;;6.70;99.90;;;5.58;100.00;94055.03;10530715;28;1903;-74
2021/11/04 00:24:44;;;;;;;;;;;6.70;99.90;;;5.57;100.00;94040.09;10515940;28;1906;-75
2021/11/04 00:29:47;;;;;;;;;;;6.70;99.90;;;5.63;100.00;94041.63;10524561;28;1797;-75
2021/11/04 00:34:49;;;;;;;;;;;6.70;99.90;;;5.62;100.00;94045.38;10527574;28;1891;-75
2021/11/04 00:39:52;;;;;;;;;;;6.70;99.90;;;5.65;100.00;94047.47;10524719;28;1950;-74
2021/11/04 00:44:55;;;;;;;;;;;6.70;99.90;;;5.68;100.00;94038.91;10524052;28;1938;-74
2021/11/04 00:49:58;;;;;;;;;;;6.70;99.90;;;5.74;100.00;94031.66;10526926;28;1840;-74
2021/11/04 00:55:01;;;;;;;;;;;6.80;99.90;;;5.72;100.00;94031.91;10519700;28;2231;-75
2021/11/04 01:00:04;;;;;;;;;;;6.80;99.90;;;5.70;100.00;94026.09;10525929;28;1949;-74
2021/11/04 01:05:07;;;;;;;;;;;6.80;99.90;;;5.74;100.00;94018.31;10522519;28;1919;-74
2021/11/04 01:10:09;;;;;;;;;;;6.80;99.90;;;5.69;100.00;94021.84;10520636;28;2391;-74
2021/11/04 01:15:12;;;;;;;;;;;6.70;99.90;;;5.60;100.00;94020.91;10520923;28;1930;-74
2021/11/04 01:20:15;;;;;;;;;;;6.70;99.90;;;5.56;100.00;94030.53;10526131;28;1903;-74
2021/11/04 01:25:18;;;;;;;;;;;6.60;99.90;;;5.63;100.00;94031.78;10515072;28;2075;-74
2021/11/04 01:30:21;;;;;;;;;;;6.60;99.90;;;5.56;100.00;94025.19;10513909;28;1884;-74
2021/11/04 01:35:24;;;;;;;;;;;6.60;99.90;;;5.53;100.00;94033.75;10516411;28;1950;-73
2021/11/04 01:40:27;;;;;;;;;;;6.60;99.90;;;5.43;100.00;94022.13;10507359;28;1847;-73
2021/11/04 01:45:29;;;;;;;;;;;6.50;99.90;;;5.50;100.00;94005.00;10518568;28;1985;-75
2021/11/04 01:50:32;;;;;;;;;;;6.50;99.90;;;5.37;100.00;93985.97;10522529;28;1880;-74
2021/11/04 01:55:35;;;;;;;;;;;6.50;99.90;;;5.29;100.00;93999.13;10508369;28;2071;-74
2021/11/04 02:00:38;;;;;;;;;;;6.40;99.90;;;5.14;100.00;94006.19;10521660;28;2054;-75
2021/11/04 02:05:41;;;;;;;;;;;6.30;99.90;;;5.16;100.00;94024.56;10524801;28;2091;-74
2021/11/04 02:10:44;;;;;;;;;;;6.30;99.90;;;5.21;100.00;94026.38;10515039;28;2009;-75
2021/11/04 02:16:06;;;;;;;;;;;6.30;99.90;;;5.11;100.00;94032.59;10517293;28;2069;-75
2021/11/04 02:21:10;;;;;;;;;;;6.20;99.90;;;5.06;100.00;94011.34;10524781;28;2397;-75
2021/11/04 02:26:13;;;;;;;;;;;6.10;99.90;;;4.99;100.00;93978.94;10498836;28;2026;-75
2021/11/04 02:31:36;;;;;;;;;;;6.00;99.90;;;4.86;100.00;93983.06;10514423;28;2118;-75
2021/11/04 02:36:59;;;;;;;;;;;5.90;99.90;;;4.68;100.00;93989.88;10529952;28;2080;-76
2021/11/04 02:42:21;;;;;;;;;;;5.80;99.90;;;4.57;100.00;93961.75;10526231;28;2098;-76
2021/11/04 02:47:30;;;;;;;;;;;5.70;99.90;;;4.32;100.00;93976.84;10529300;28;2168;-75
2021/11/04 02:52:33;;;;;;;;;;;5.40;99.90;;;4.22;100.00;93998.22;10535468;28;2005;-76
2021/11/04 02:57:36;;;;;;;;;;;5.30;99.90;;;4.13;100.00;93999.88;10547351;28;2033;-74
2021/11/04 03:02:38;;;;;;;;;;;5.20;99.90;;;4.11;100.00;94011.84;10541950;28;2083;-75
2021/11/04 03:07:41;;;;;;;;;;;5.10;99.90;;;4.08;100.00;94005.25;10523680;28;2088;-74
2021/11/04 03:12:44;;;;;;;;;;;5.10;99.90;;;4.07;100.00;93990.34;10524034;28;2028;-74
2021/11/04 03:17:48;;;;;;;;;;;5.10;99.90;;;4.01;100.00;93986.16;10545697;28;2056;-74
2021/11/04 03:22:50;;;;;;;;;;;5.10;99.90;;;4.00;100.00;93980.00;10520037;28;2205;-74
2021/11/04 03:27:53;;;;;;;;;;;5.00;99.90;;;4.01;100.00;93986.94;10529570;28;2021;-74
2021/11/04 03:32:56;;;;;;;;;;;5.00;99.90;;;4.02;100.00;93985.06;10521291;28;2195;-73
2021/11/04 03:37:59;;;;;;;;;;;5.00;99.90;;;4.01;100.00;93986.16;10530684;28;2092;-74
2021/11/04 03:43:02;;;;;;;;;;;5.10;99.90;;;3.98;100.00;93992.00;10525170;28;2026;-74
2021/11/04 03:48:05;;;;;;;;;;;5.00;99.90;;;3.90;100.00;94027.13;10521943;28;1976;-74
2021/11/04 03:53:20;;;;;;;;;;;5.00;99.90;;;4.00;100.00;94032.38;10526052;28;2100;-75
2021/11/04 03:58:35;;;;;;;;;;;5.00;99.90;;;3.94;100.00;94039.59;10520377;28;2052;-73
2021/11/04 04:03:38;;;;;;;;;;;5.00;99.90;;;3.93;100.00;94053.16;10512739;28;2064;-74
2021/11/04 04:08:41;;;;;;;;;;;5.00;99.90;;;3.91;100.00;94055.31;10506347;28;2035;-74
2021/11/04 04:13:44;;;;;;;;;;;4.90;99.90;;;3.95;100.00;94077.63;10532236;28;2172;-75
2021/11/04 04:19:06;;;;;;;;;;;5.00;99.90;;;3.98;100.00;94058.47;10524080;28;2036;-74
2021/11/04 04:24:09;;;;;;;;;;;5.00;99.90;;;4.04;100.00;94065.34;10528770;28;2199;-75
2021/11/04 04:29:12;;;;;;;;;;;5.00;99.90;;;4.00;100.00;94058.97;10525319;28;2194;-74
2021/11/04 04:34:15;;;;;;;;;;;5.00;99.90;;;4.01;100.00;94055.28;10505942;28;2044;-74
2021/11/04 04:39:18;;;;;;;;;;;5.00;99.90;;;4.03;100.00;94069.06;10526275;28;2043;-75
2021/11/04 04:44:28;;;;;;;;;;;5.00;99.90;;;4.03;100.00;94085.81;10506093;28;2021;-74
2021/11/04 04:49:31;;;;;;;;;;;5.20;99.90;;;4.09;100.00;94115.84;10522706;28;1954;-73
2021/11/04 04:54:34;;;;;;;;;;;5.10;99.90;;;4.09;100.00;94110.53;10518367;28;2044;-75
2021/11/04 04:59:37;;;;;;;;;;;5.10;99.90;;;4.05;100.00;94082.88;10522708;28;2021;-76
2021/11/04 05:04:40;;;;;;;;;;;5.10;99.90;;;3.94;100.00;94082.13;10527260;28;2005;-75
2021/11/04 05:09:43;;;;;;;;;;;5.00;99.90;;;3.95;100.00;94082.94;10520475;28;2401;-75
2021/11/04 05:14:46;;;;;;;;;;;5.00;99.90;;;3.91;100.00;94103.94;10523508;28;2040;-76
2021/11/04 05:19:50;;;;;;;;;;;5.00;99.90;;;3.91;100.00;94114.59;10504429;28;1986;-75
2021/11/04 05:24:53;;;;;;;;;;;5.00;99.90;;;3.87;100.00;94107.41;10529107;28;2077;-75
2021/11/04 05:29:56;;;;;;;;;;;5.00;99.90;;;3.90;100.00;94117.53;10517034;28;2009;-75
2021/11/04 05:34:59;;;;;;;;;;;4.90;99.90;;;3.94;100.00;94126.53;10516016;28;2103;-75
2021/11/04 05:40:02;;;;;;;;;;;5.00;99.90;;;3.93;100.00;94138.22;10507530;28;1998;-75
2021/11/04 05:45:04;;;;;;;;;;;5.00;99.90;;;3.97;100.00;94155.25;10521763;28;2092;-76
2021/11/04 05:50:07;;;;;;;;;;;5.00;99.90;;;3.95;100.00;94157.38;10527525;28;2123;-74
2021/11/04 05:55:10;;;;;;;;;;;5.00;99.90;;;3.84;100.00;94169.09;10517361;28;2016;-74
2021/11/04 06:00:13;;;;;;;;;;;4.90;99.90;;;3.83;100.00;94175.50;10502852;28;2071;-74
2021/11/04 06:05:16;;;;;;;;;;;4.90;99.90;;;3.78;100.00;94182.41;10524815;28;2169;-76
2021/11/04 06:10:19;;;;;;;;;;;4.90;99.90;;;3.69;100.00;94192.00;10507287;28;1951;-74
2021/11/04 06:15:22;;;;;;;;;;;4.80;99.90;;;3.60;100.00;94177.66;10531356;28;1985;-74
2021/11/04 06:20:24;;;;;;;;;;;4.70;99.90;;;3.52;100.00;94216.19;10528577;28;2007;-75
2021/11/04 06:25:27;;;;;;;;;;;4.70;99.90;;;3.55;100.00;94212.19;10530917;28;2059;-75
2021/11/04 06:30:30;;;;;;;;;;;4.60;99.90;;;3.50;100.00;94212.22;10522786;28;1989;-75
2021/11/04 06:35:33;;;;;;;;;;;4.60;99.90;;;3.56;100.00;94203.16;10528685;28;2148;-75
2021/11/04 06:40:36;;;;;;;;;;;4.60;99.90;;;3.75;100.00;94211.38;10555357;28;1948;-79
2021/11/04 06:45:39;;;;;;;;;;;4.70;99.90;;;3.60;100.00;94230.81;10566440;28;2110;-79
2021/11/04 06:50:43;;;;;;;;;;;4.80;99.90;;;3.60;100.00;94212.19;10568310;28;2056;-79
2021/11/04 06:55:45;;;;;;;;;;;4.70;99.90;;;3.65;100.00;94230.81;10547257;28;2026;-79
2021/11/04 07:00:48;;;;;;;;;;;4.70;99.90;;;3.71;100.00;94243.00;10565795;28;1964;-78
2021/11/04 07:05:56;;;;;;;;;;;4.70;99.90;;;4.04;100.00;94246.16;10576552;28;2020;-79
2021/11/04 07:10:59;;;;;;;;;;;4.90;99.90;;;4.02;100.00;94266.91;10556655;28;1948;-81
2021/11/04 07:16:02;;;;;;;;;;;5.00;99.90;;;4.14;100.00;94282.56;10566578;28;2113;-79
2021/11/04 07:21:05;;;;;;;;;;;5.10;99.90;;;7.12;97.91;94273.59;10543258;28;2122;-73
2021/11/04 07:26:08;;;;;;;;;;;7.40;99.90;;;5.17;100.00;94289.88;10556762;28;2048;-78
2021/11/04 07:31:11;;;;;;;;;;;6.90;99.90;;;4.38;100.00;94298.72;10546882;28;1942;-78
2021/11/04 07:36:14;;;;;;;;;;;5.80;99.90;;;4.28;100.00;94311.00;10569493;28;1894;-80
2021/11/04 07:41:17;;;;;;;;;;;5.50;99.90;;;4.24;100.00;94309.13;10554133;28;2253;-77
2021/11/04 07:46:20;;;;;;;;;;;5.40;99.90;;;4.58;100.00;94322.59;10543253;28;2050;-79
2021/11/04 07:51:22;;;;;;;;;;;5.40;99.90;;;4.95;100.00;94334.72;10564709;28;2075;-80
2021/11/04 07:56:25;;;;;;;;;;;5.80;99.90;;;4.92;100.00;94340.59;10547151;28;1976;-82
2021/11/04 08:01:28;;;;;;;;;;;5.90;99.90;;;5.02;100.00;94351.19;10554591;28;2162;-81
2021/11/04 08:06:31;;;;;;;;;;;5.90;99.90;;;5.09;100.00;94352.50;10518496;28;2073;-79
2021/11/04 08:11:34;;;;;;;;;;;6.00;99.90;;;5.01;100.00;94357.59;10579597;28;2037;-79
2021/11/04 08:16:37;;;;;;;;;;;6.10;99.90;;;5.23;100.00;94362.56;10576529;28;1355;-79
2021/11/04 08:21:40;;;;;;;;;;;6.10;99.90;;;5.20;100.00;94363.09;10575785;28;1637;-79
2021/11/04 08:26:43;;;;;;;;;;;6.20;99.90;;;5.09;100.00;94383.66;10560878;28;2119;-80
2021/11/04 08:31:46;;;;;;;;;;;6.20;99.90;;;5.06;100.00;94387.66;10515995;28;1784;-81
2021/11/04 08:36:48;;;;;;;;;;;6.20;99.90;;;5.11;100.00;94384.19;10532646;28;2016;-80
2021/11/04 08:41:51;;;;;;;;;;;6.10;99.90;;;5.25;100.00;94403.84;10538321;28;2346;-81
2021/11/04 08:46:54;;;;;;;;;;;6.10;99.90;;;5.24;100.00;94412.09;10524365;28;2019;-80
2021/11/04 08:51:58;;;;;;;;;;;6.20;99.90;;;5.05;100.00;94427.88;10542784;28;1941;-77
2021/11/04 08:57:01;;;;;;;;;;;6.20;99.90;;;5.02;100.00;94431.09;10536157;28;2020;-77
2021/11/04 09:02:05;;;;;;;;;;;6.00;99.90;;;5.09;100.00;94436.91;10531452;28;1957;-77
2021/11/04 09:07:07;;;;;;;;;;;6.10;99.90;;;5.04;100.00;94447.59;10527278;28;2194;-75
2021/11/04 09:12:10;;;;;;;;;;;6.10;99.90;;;4.97;100.00;94452.44;10522902;28;2042;-76
2021/11/04 09:17:14;;;;;;;;;;;6.00;99.90;;;5.10;100.00;94465.16;10530418;28;2146;-76
2021/11/04 09:22:17;;;;;;;;;;;6.10;99.90;;;5.29;100.00;94473.38;10504374;28;1986;-76
2021/11/04 09:27:20;;;;;;;;;;;6.20;99.90;;;5.65;99.78;94460.66;10522403;28;2051;-76
2021/11/04 09:32:43;;;;;;;;;;;6.40;99.90;;;6.13;97.49;94483.09;10519714;28;2119;-76
2021/11/04 09:37:46;;;;;;;;;;;6.80;99.90;;;6.31;94.75;94499.53;10504563;28;2015;-76
2021/11/04 09:42:49;;;;;;;;;;;7.10;99.90;;;6.29;94.17;94507.00;10520044;28;2184;-77
2021/11/04 09:47:52;;;;;;;;;;;7.20;99.90;;;6.70;91.65;94507.53;10531215;28;2111;-76
2021/11/04 09:52:56;;;;;;;;;;;7.50;99.90;;;6.68;92.66;94520.34;10547949;28;2004;-77
2021/11/04 09:57:59;;;;;;;;;;;7.60;99.90;;;6.47;93.08;94519.69;10547163;28;1595;-75
2021/11/04 10:03:02;;;;;;;;;;;7.60;99.90;;;6.90;92.29;94515.34;10550601;28;2071;-76
2021/11/04 10:08:06;;;;;;;;;;;7.70;99.90;;;7.27;90.67;94527.31;10539159;28;2042;-77
2021/11/04 10:13:09;;;;;;;;;;;8.00;99.90;;;7.74;87.17;94526.50;10539617;28;2123;-76
2021/11/04 10:18:12;;;;;;;;;;;8.30;99.90;;;7.45;86.51;94528.47;10553907;28;2040;-76
2021/11/04 10:23:14;;;;;;;;;;;8.30;99.90;;;7.47;85.84;94526.28;10560078;28;2095;-75
2021/11/04 10:28:17;;;;;;;;;;;8.50;99.90;;;7.48;85.95;94523.34;10542861;28;2008;-77
2021/11/04 10:33:20;;;;;;;;;;;8.40;99.90;;;7.37;86.15;94537.88;10521090;28;2137;-77
2021/11/04 10:38:23;;;;;;;;;;;8.30;99.90;;;7.15;85.54;94529.56;10521637;28;1992;-77
2021/11/04 10:43:26;;;;;;;;;;;8.40;99.90;;;6.90;86.22;94534.06;10536699;28;2012;-76
2021/11/04 10:48:29;;;;;;;;;;;8.00;99.90;;;7.23;88.94;94547.66;10530465;28;1963;-77
2021/11/04 10:53:32;;;;;;;;;;;8.00;99.90;;;7.49;85.48;94546.31;10530462;28;1979;-77
2021/11/04 10:58:35;;;;;;;;;;;8.30;99.90;;;7.63;82.41;94546.44;10525792;28;1883;-76
2021/11/04 11:03:38;;;;;;;;;;;8.50;99.90;;;7.58;81.65;94551.84;10526071;28;1899;-76
2021/11/04 11:08:41;;;;;;;;;;;8.50;99.90;;;7.26;82.68;94553.25;10532897;28;1977;-79
2021/11/04 11:13:44;;;;;;;;;;;8.40;99.90;;;6.99;82.24;94559.06;10540538;28;1894;-77
2021/11/04 11:18:47;;;;;;;;;;;8.10;99.90;;;7.18;83.86;94582.44;10537154;28;1972;-75
2021/11/04 11:23:50;;;;;;;;;;;8.10;99.90;;;7.28;82.89;94601.06;10550109;28;2012;-76
2021/11/04 11:28:53;;;;;;;;;;;8.20;99.90;;;7.49;81.31;94586.41;10541758;28;2236;-75
2021/11/04 11:33:56;;;;;;;;;;;8.30;99.90;;;7.57;81.91;94595.69;10548028;28;1895;-75
2021/11/04 11:38:59;;;;;;;;;;;8.30;99.90;;;7.86;79.31;94593.78;10536623;28;1895;-76
2021/11/04 11:44:05;;;;;;;;;;;8.60;99.90;;;7.74;78.09;94596.06;10543052;28;2069;-75
2021/11/04 11:49:07;;;;;;;;;;;8.70;99.90;;;7.58;80.66;94619.50;10534943;28;2134;-74
2021/11/04 11:54:10;;;;;;;;;;;8.50;99.90;;;7.11;81.02;94622.84;10544333;28;2178;-75
2021/11/04 11:59:18;;;;;;;;;;;8.30;99.90;;;7.15;80.57;94628.44;10540204;28;1894;-74
2021/11/04 12:04:21;;;;;;;;;;;8.20;99.90;;;6.91;81.58;94642.50;10545827;28;1828;-76
2021/11/04 12:09:25;;;;;;;;;;;8.00;99.90;;;6.61;82.06;94640.00;10544415;28;1970;-74
2021/11/04 12:14:29;;;;;;;;;;;7.80;99.90;;;6.50;83.96;94664.13;10515696;28;1903;-74
2021/11/04 12:19:32;;;;;;;;;;;7.60;99.90;;;6.41;84.62;94670.28;10509831;28;1879;-75
2021/11/04 12:24:35;;;;;;;;;;;7.50;99.90;;;6.76;85.75;94688.03;10526767;28;1950;-75
2021/11/04 12:29:38;;;;;;;;;;;7.60;99.90;;;6.43;84.50;94692.19;10525142;28;1905;-75
2021/11/04 12:34:41;;;;;;;;;;;7.60;99.90;;;6.59;87.24;94698.25;10526271;28;1943;-76
2021/11/04 12:39:44;;;;;;;;;;;7.60;99.90;;;6.66;85.30;94701.41;10522020;28;1801;-75
2021/11/04 12:44:47;;;;;;;;;;;7.70;99.90;;;6.57;90.32;94711.09;10513294;28;1919;-76
2021/11/04 12:49:50;;;;;;;;;;;7.60;99.90;;;6.22;92.63;94718.13;10528206;28;1983;-76
2021/11/04 12:54:53;;;;;;;;;;;7.40;99.90;;;6.01;94.25;94729.94;10532489;28;1938;-76
2021/11/04 12:59:59;;;;;;;;;;;7.20;99.90;;;6.00;97.95;94731.00;10519268;28;1793;-75
2021/11/04 13:05:02;;;;;;;;;;;7.10;99.90;;;5.79;100.00;94739.03;10530324;28;2002;-76
2021/11/04 13:10:05;;;;;;;;;;;7.00;99.90;;;5.70;100.00;94757.41;10525588;28;1958;-75
2021/11/04 13:15:08;;;;;;;;;;;6.90;99.90;;;5.75;100.00;94769.94;10530628;28;1839;-75
2021/11/04 13:20:11;;;;;;;;;;;6.90;99.90;;;5.60;100.00;94772.63;10530247;28;1946;-76
2021/11/04 13:25:14;;;;;;;;;;;6.80;99.90;;;5.74;100.00;94778.22;10545053;28;1958;-75
2021/11/04 13:30:17;;;;;;;;;;;6.80;99.90;;;5.86;100.00;94782.22;10546990;28;1946;-74
2021/11/04 13:35:39;;;;;;;;;;;6.90;99.90;;;5.88;99.31;94800.63;10547425;28;2029;-72
2021/11/04 13:40:45;;;;;;;;;;;6.90;99.90;;;5.91;100.00;94811.56;10543842;28;2077;-74
2021/11/04 13:45:48;;;;;;;;;;;6.90;99.90;;;5.87;100.00;94810.47;10523531;28;2040;-76
2021/11/04 13:50:53;;;;;;;;;;;6.90;99.90;;;5.87;100.00;94817.69;10523140;28;1965;-75
2021/11/04 13:55:56;;;;;;;;;;;6.90;99.90;;;5.89;100.00;94812.88;10526618;28;2107;-77
2021/11/04 14:00:59;;;;;;;;;;;6.90;99.90;;;5.85;100.00;94823.28;10524358;28;1898;-79
2021/11/04 14:06:02;;;;;;;;;;;6.90;99.90;;;5.81;100.00;94834.75;10530801;28;2061;-79
2021/11/04 14:11:05;;;;;;;;;;;6.90;99.90;;;5.56;100.00;94839.00;10543432;28;1914;-78
2021/11/04 14:16:08;;;;;;;;;;;6.70;99.90;;;5.47;100.00;94855.75;10530170;28;1922;-81
2021/11/04 14:21:32;;;;;;;;;;;6.60;99.90;;;5.37;100.00;94875.19;10542291;28;1926;-79
2021/11/04 14:26:35;;;;;;;;;;;6.50;99.90;;;5.25;100.00;94871.97;10541662;28;1978;-80
2021/11/04 14:31:39;;;;;;;;;;;6.40;99.90;;;5.17;100.00;94889.25;10546200;28;1931;-78
2021/11/04 14:36:42;;;;;;;;;;;6.30;99.90;;;5.09;100.00;94908.38;10546661;28;2015;-78
2021/11/04 14:41:45;;;;;;;;;;;6.20;99.90;;;4.96;100.00;94928.31;10539655;28;1894;-81
2021/11/04 14:46:48;;;;;;;;;;;6.20;99.90;;;4.89;100.00;94944.53;10539046;28;2084;-79
2021/11/04 14:51:51;;;;;;;;;;;6.10;99.90;;;4.84;100.00;94949.03;10528555;28;1944;-78
2021/11/04 14:56:54;;;;;;;;;;;6.00;99.90;;;4.80;100.00;94954.06;10537930;28;1933;-79
2021/11/04 15:01:57;;;;;;;;;;;6.10;99.90;;;4.95;100.00;94964.00;10546542;28;1883;-78
2021/11/04 15:07:00;;;;;;;;;;;6.00;99.90;;;5.05;100.00;94961.41;10542805;28;1914;-77
2021/11/04 15:12:03;;;;;;;;;;;6.10;99.90;;;5.09;100.00;94977.66;10546305;28;1886;-77
2021/11/04 15:17:05;;;;;;;;;;;6.20;99.90;;;5.06;100.00;94986.16;10527869;28;2100;-78
2021/11/04 15:22:08;;;;;;;;;;;6.30;99.90;;;4.89;100.00;94984.47;10551747;28;2099;-78
2021/11/04 15:27:11;;;;;;;;;;;6.10;99.90;;;4.92;100.00;94993.81;10537137;28;2025;-77
2021/11/04 15:32:14;;;;;;;;;;;6.10;99.90;;;4.70;100.00;94988.59;10528790;28;1891;-78
2021/11/04 15:37:17;;;;;;;;;;;6.00;99.90;;;4.56;100.00;94976.78;10532741;28;1946;-77
2021/11/04 15:42:21;;;;;;;;;;;5.80;99.90;;;4.46;100.00;94992.69;10541424;28;1953;-77
2021/11/04 15:47:24;;;;;;;;;;;5.70;99.90;;;4.34;100.00;94993.66;10544403;28;2164;-81
2021/11/04 15:52:27;;;;;;;;;;;5.60;99.90;;;4.27;100.00;94989.59;10516181;28;1882;-76
2021/11/04 15:57:33;;;;;;;;;;;5.60;99.90;;;4.23;100.00;94989.31;10525053;28;1808;-77
2021/11/04 16:02:35;;;;;;;;;;;5.50;99.90;;;4.17;100.00;95014.25;10513794;28;1894;-78
2021/11/04 16:07:43;;;;;;;;;;;5.40;99.90;;;4.19;100.00;95020.09;10519358;28;4228;-79
2021/11/04 16:12:45;;;;;;;;;;;5.50;99.90;;;4.13;100.00;95025.63;10554242;28;1872;-78
2021/11/04 16:17:48;;;;;;;;;;;5.40;99.90;;;4.12;100.00;95035.47;10539839;28;2262;-77
2021/11/04 16:22:51;;;;;;;;;;;5.30;99.90;;;4.07;100.00;95038.91;10540288;28;2142;-77
2021/11/04 16:27:54;;;;;;;;;;;5.30;99.90;;;4.10;100.00;95042.91;10549972;28;1946;-78
2021/11/04 16:32:57;;;;;;;;;;;5.30;99.90;;;4.05;100.00;95061.47;10548951;28;2028;-79
2021/11/04 16:38:00;;;;;;;;;;;5.30;99.90;;;3.96;100.00;95076.28;10550457;28;1907;-78
2021/11/04 16:43:04;;;;;;;;;;;5.20;99.90;;;3.88;100.00;95084.66;10550108;28;1630;-77
2021/11/04 16:48:07;;;;;;;;;;;5.20;99.90;;;3.87;100.00;95083.06;10529123;28;1914;-77
2021/11/04 16:53:10;;;;;;;;;;;5.10;99.90;;;3.83;100.00;95081.97;10500669;28;4267;-75
2021/11/04 16:58:13;;;;;;;;;;;5.10;99.90;;;3.71;100.00;95093.53;10499107;28;1058;-74
2021/11/04 17:03:16;;;;;;;;;;;5.00;99.90;;;3.68;100.00;95101.97;10495749;28;1241;-74
2021/11/04 17:08:19;;;;;;;;;;;5.00;99.90;;;3.63;100.00;95115.22;10497800;28;1930;-75
2021/11/04 17:13:25;;;;;;;;;;;4.90;99.90;;;3.56;100.00;95114.56;10499484;28;1201;-74
2021/11/04 17:18:28;;;;;;;;;;;4.90;99.90;;;3.62;100.00;95126.88;10481118;28;1411;-75
2021/11/04 17:23:31;;;;;;;;;;;4.80;99.90;;;3.69;100.00;95130.19;10500393;28;1212;-75
2021/11/04 17:28:34;;;;;;;;;;;4.90;99.90;;;3.67;100.00;95140.25;10503941;28;1984;-76
2021/11/04 17:33:37;;;;;;;;;;;4.90;99.90;;;3.56;100.00;95148.31;10498374;28;1213;-74
2021/11/04 17:38:40;;;;;;;;;;;5.00;99.90;;;3.58;100.00;95165.66;10494831;28;865;-77
2021/11/04 17:43:43;;;;;;;;;;;4.90;99.90;;;3.57;100.00;95173.88;10497993;28;1203;-75
2021/11/04 17:48:46;;;;;;;;;;;4.80;99.90;;;3.48;100.00;95176.13;10499442;28;1949;-77
2021/11/04 17:53:49;;;;;;;;;;;4.80;99.90;;;3.46;100.00;95180.88;10512936;28;1323;-78
2021/11/04 17:58:52;;;;;;;;;;;4.80;99.90;;;3.59;100.00;95191.16;10515600;28;1046;-79
2021/11/04 18:03:59;;;;;;;;;;;4.80;99.90;;;3.47;100.00;95193.09;10509172;28;1311;-77
2021/11/04 18:09:02;;;;;;;;;;;4.80;99.90;;;3.38;100.00;95210.50;10504294;28;1910;-76
2021/11/04 18:14:05;;;;;;;;;;;4.70;99.90;;;3.34;100.00;95220.00;10477181;28;1338;-76
2021/11/04 18:19:08;;;;;;;;;;;4.60;99.90;;;3.20;100.00;95224.84;10493778;28;935;-77
2021/11/04 18:24:11;;;;;;;;;;;4.60;99.90;;;3.15;100.00;95232.72;10498351;28;1325;-76
2021/11/04 18:29:14;;;;;;;;;;;4.60;99.90;;;3.19;100.00;95233.84;10491834;28;1922;-76
2021/11/04 18:34:17;;;;;;;;;;;4.40;99.90;;;3.37;100.00;95241.59;10493457;28;1197;-77
2021/11/04 18:39:20;;;;;;;;;;;4.50;99.90;;;3.43;100.00;95239.78;10495267;28;1309;-75
2021/11/04 18:44:25;;;;;;;;;;;4.60;99.90;;;3.38;100.00;95242.41;10496499;28;1236;-77
2021/11/04 18:49:28;;;;;;;;;;;4.60;99.90;;;3.34;100.00;95247.38;10494404;28;2082;-75
2021/11/04 18:54:31;;;;;;;;;;;4.60;99.90;;;3.28;100.00;95252.84;10493342;28;1207;-76
2021/11/04 18:59:34;;;;;;;;;;;4.50;99.90;;;3.20;100.00;95254.84;10493541;28;829;-76
2021/11/04 19:04:37;;;;;;;;;;;4.40;99.90;;;3.05;100.00;95253.78;10503470;28;1240;-80
2021/11/04 19:10:02;;;;;;;;;;;4.40;99.90;;;2.96;100.00;95256.00;10513893;28;1927;-79
2021/11/04 19:15:26;;;;;;;;;;;4.30;99.90;;;2.85;100.00;95270.94;10513879;28;1224;-79
2021/11/04 19:20:49;;;;;;;;;;;4.20;99.90;;;2.88;100.00;95282.94;10514000;28;983;-79
2021/11/04 19:25:53;;;;;;;;;;;4.20;99.90;;;2.73;100.00;95283.44;10515827;28;1209;-79
2021/11/04 19:30:56;;;;;;;;;;;4.20;99.90;;;2.71;100.00;95282.88;10532182;28;1891;-77
2021/11/04 19:35:59;;;;;;;;;;;4.00;99.90;;;2.65;100.00;95295.25;10539988;28;1208;-79
2021/11/04 19:41:02;;;;;;;;;;;4.10;99.90;;;2.58;100.00;95304.38;10514338;28;1109;-78
2021/11/04 19:46:04;;;;;;;;;;;4.00;99.90;;;2.67;100.00;95310.94;10513313;28;1347;-78
2021/11/04 19:51:08;;;;;;;;;;;3.90;99.90;;;2.68;100.00;95318.69;10528418;28;1957;-78
2021/11/04 19:56:13;;;;;;;;;;;3.90;99.90;;;2.72;100.00;95330.41;10522051;28;1343;-79
2021/11/04 20:01:15;;;;;;;;;;;4.00;99.90;;;2.79;100.00;95340.09;10521276;28;737;-79
2021/11/04 20:06:18;;;;;;;;;;;4.00;99.90;;;2.80;100.00;95336.41;10493571;28;1267;-79
2021/11/04 20:11:22;;;;;;;;;;;4.00;99.90;;;2.72;100.00;95345.53;10508822;28;1910;-79
2021/11/04 20:16:25;;;;;;;;;;;4.00;99.90;;;2.72;100.00;95350.84;10505463;28;1172;-78
2021/11/04 20:21:28;;;;;;;;;;;4.00;99.90;;;2.66;100.00;95362.41;10510807;28;772;-78
2021/11/04 20:26:31;;;;;;;;;;;4.00;99.90;;;2.67;100.00;95370.16;10508152;28;1229;-79
2021/11/04 20:31:34;;;;;;;;;;;3.90;99.90;;;2.69;100.00;95377.88;10514915;28;1955;-80
2021/11/04 20:36:37;;;;;;;;;;;3.90;99.90;;;2.63;100.00;95387.56;10509630;28;1292;-77
2021/11/04 20:41:40;;;;;;;;;;;3.90;99.90;;;2.75;100.00;95392.06;10509699;28;815;-80
2021/11/04 20:46:42;;;;;;;;;;;4.10;99.90;;;2.76;100.00;95391.81;10504438;28;1283;-80
2021/11/04 20:51:45;;;;;;;;;;;4.10;99.90;;;2.74;100.00;95407.19;10490425;28;1981;-79
2021/11/04 20:56:48;;;;;;;;;;;4.10;99.90;;;2.79;100.00;95406.47;10489425;28;1340;-78
2021/11/04 21:01:51;;;;;;;;;;;4.00;99.90;;;2.69;100.00;95415.03;10505089;28;1218;-78
2021/11/04 21:06:54;;;;;;;;;;;4.00;99.90;;;2.56;100.00;95420.56;10478625;28;1381;-78
2021/11/04 21:11:59;;;;;;;;;;;3.90;99.90;;;2.52;100.00;95422.06;10505866;28;1890;-80
2021/11/04 21:17:02;;;;;;;;;;;3.90;99.90;;;2.38;100.00;95421.50;10504239;28;1228;-79
2021/11/04 21:22:05;;;;;;;;;;;3.80;99.90;;;2.46;100.00;95423.00;10490916;28;1225;-79
2021/11/04 21:27:09;;;;;;;;;;;3.80;99.90;;;2.50;100.00;95422.31;10487523;28;1256;-78
2021/11/04 21:32:12;;;;;;;;;;;3.80;99.90;;;2.64;100.00;95426.31;10506426;28;1989;-79
2021/11/04 21:37:15;;;;;;;;;;;3.80;99.90;;;2.50;100.00;95429.47;10505639;28;1074;-79
2021/11/04 21:42:19;;;;;;;;;;;3.80;99.90;;;2.43;100.00;95416.31;10487862;28;1219;-78
2021/11/04 21:47:22;;;;;;;;;;;3.70;99.90;;;2.42;100.00;95425.31;10507563;28;1093;-78
2021/11/04 21:52:24;;;;;;;;;;;3.80;99.90;;;2.51;100.00;95429.22;10490677;28;1987;-80
2021/11/04 21:57:27;;;;;;;;;;;3.80;99.90;;;2.54;100.00;95430.59;10518427;28;1073;-78
2021/11/04 22:02:30;;;;;;;;;;;3.70;99.90;;;2.46;100.00;95437.06;10521308;28;1204;-79
2021/11/04 22:07:33;;;;;;;;;;;3.70;99.90;;;2.52;100.00;95446.75;10508864;28;1058;-80
2021/11/04 22:12:36;;;;;;;;;;;3.70;99.90;;;2.57;100.00;95454.84;10504441;28;1993;-77
2021/11/04 22:17:41;;;;;;;;;;;3.80;99.90;;;2.62;100.00;95460.25;10483629;28;1425;-79
2021/11/04 22:22:44;;;;;;;;;;;3.80;99.90;;;2.55;100.00;95453.47;10487628;28;1369;-78
2021/11/04 22:27:47;;;;;;;;;;;3.80;99.90;;;2.62;100.00;95468.22;10499516;28;745;-77
2021/11/04 22:32:50;;;;;;;;;;;3.80;99.90;;;2.76;100.00;95462.69;10498772;28;1902;-78
2021/11/04 22:37:57;;;;;;;;;;;3.90;99.90;;;2.98;100.00;95472.44;10504626;28;788;-79
2021/11/04 22:43:00;;;;;;;;;;;4.00;99.90;;;3.09;100.00;95470.00;10503756;28;1343;-78
2021/11/04 22:48:03;;;;;;;;;;;4.20;99.90;;;3.18;100.00;95477.41;10482637;28;1223;-79
2021/11/04 22:53:06;;;;;;;;;;;4.30;99.90;;;3.22;100.00;95475.88;10502426;28;1991;-78
2021/11/04 22:58:09;;;;;;;;;;;4.40;99.90;;;3.24;100.00;95487.09;10493318;28;1420;-79
2021/11/04 23:03:12;;;;;;;;;;;4.40;99.90;;;3.34;100.00;95496.31;10488354;28;1237;-78
2021/11/04 23:08:15;;;;;;;;;;;4.50;99.90;;;3.37;100.00;95501.13;10486443;28;1413;-78
2021/11/04 23:13:18;;;;;;;;;;;4.50;99.90;;;3.40;100.00;95511.31;10501765;28;1981;-78
2021/11/04 23:18:21;;;;;;;;;;;4.50;99.90;;;3.37;100.00;95512.59;10499291;28;730;-78
2021/11/04 23:23:23;;;;;;;;;;;4.60;99.90;;;3.39;100.00;95517.66;10502050;28;1345;-77
2021/11/04 23:28:26;;;;;;;;;;;4.60;99.90;;;3.40;100.00;95517.41;10524490;28;1003;-79
2021/11/04 23:33:32;;;;;;;;;;;4.60;99.90;;;3.40;100.00;95517.41;10534881;28;1338;-79
2021/11/04 23:38:35;;;;;;;;;;;4.60;99.90;;;3.41;100.00;95524.34;10508752;28;847;-78